Ana Sayfa
METAR-TAF:

METAR-TAF

Havaalanları :

Middle Peninsula Regional Airport

West Point, Virginia, Amerika Birleşik Devletleri

Enlem: 37-31-16N, Boylam: 076-45-52W, yükseklik: 7 m

Güncel hava durumu gözlemi

Rapor saat 10:15 UTC de 25 dakika önce yapıldı.
Rüzgar güneydan 3 kt
Sıcaklık 24°C
Nem 94%
Basınç 1013 hPa
Görüş mesafesi: 16.1 km
Açık gökyüzü

METAR: KFYJ 221015Z AUTO 18003KT 10SM CLR 24/23 A2990 RMK AO1 T02430228

Saat: 06:40 (10:40 UTC)


TAF: eksik

4.000'den fazla havaalanı için hava durumu gözlemleri ve tahminleri (METAR ve TAF raporları).

Kullanılabilir istasyonlar harita üzerinde sarı ve kırmızı noktalarla gösterilir.

İstasyonun adını görmek için fareyi noktanın üzerinde gezdirin.

Sonrasında hava gözlem ve tahminlerini görmek için tıklayın.

Haritayı değiştirmek için: yaklaştırmak için siyah artı işaretli yeşil düğmeye ve uzaklaştırmak için de eksi işaretli düğmeye hızla tıklayın; bitişik haritalar için yeşil okları kullanın.


METAR-TAF: